createdAt,value
2019-02-15T00:00:39.904Z,4.35
2019-02-15T00:03:10.851Z,4.39
2019-02-15T00:05:41.398Z,4.39
2019-02-15T00:08:13.366Z,4.43
2019-02-15T00:10:43.790Z,4.47
2019-02-15T00:13:14.478Z,4.47
2019-02-15T00:15:46.678Z,4.48
2019-02-15T00:18:30.355Z,4.46
2019-02-15T00:21:35.159Z,4.46
2019-02-15T00:24:05.677Z,4.42
2019-02-15T00:26:38.884Z,4.37
2019-02-15T00:29:09.722Z,4.35
2019-02-15T00:31:41.577Z,4.37
2019-02-15T00:34:12.274Z,4.38
2019-02-15T00:36:42.631Z,4.39
2019-02-15T00:39:13.515Z,4.39
2019-02-15T00:41:44.084Z,4.39
2019-02-15T00:44:14.961Z,4.43
2019-02-15T00:47:09.091Z,4.49
2019-02-15T00:49:58.602Z,4.50
2019-02-15T00:52:53.190Z,4.55
2019-02-15T00:55:38.362Z,4.54
2019-02-15T00:58:33.907Z,4.55
2019-02-15T01:01:16.180Z,4.55
2019-02-15T01:04:15.153Z,4.60
2019-02-15T01:07:07.313Z,4.62
2019-02-15T01:10:02.816Z,4.64
2019-02-15T01:12:42.330Z,4.62
2019-02-15T01:15:13.386Z,4.72
2019-02-15T01:17:43.856Z,4.74
2019-02-15T01:20:14.313Z,4.67
2019-02-15T01:22:46.109Z,4.67
2019-02-15T01:25:16.755Z,4.67
2019-02-15T01:27:56.080Z,4.57
2019-02-15T01:30:44.352Z,4.58
2019-02-15T01:33:32.752Z,4.56
2019-02-15T01:36:22.414Z,4.50
2019-02-15T01:39:08.999Z,4.43
2019-02-15T01:41:58.484Z,4.35
2019-02-15T01:44:59.803Z,4.29
2019-02-15T01:47:37.558Z,4.27
2019-02-15T01:50:08.350Z,4.24
2019-02-15T01:52:40.346Z,4.27
2019-02-15T01:55:12.134Z,4.22
2019-02-15T01:57:42.924Z,4.26
2019-02-15T02:00:16.013Z,4.23
2019-02-15T02:02:46.607Z,4.19
2019-02-15T02:05:17.007Z,4.20
2019-02-15T02:07:47.856Z,4.20
2019-02-15T02:10:18.244Z,4.17
2019-02-15T02:12:48.737Z,4.18
2019-02-15T02:15:19.351Z,4.17
2019-02-15T02:17:50.135Z,4.16
2019-02-15T02:20:20.777Z,4.15
2019-02-15T02:22:51.774Z,4.11
2019-02-15T02:25:22.373Z,4.12
2019-02-15T02:27:54.560Z,4.16
2019-02-15T02:30:25.307Z,4.15
2019-02-15T02:32:56.532Z,4.16
2019-02-15T02:35:27.077Z,4.16
2019-02-15T02:37:58.685Z,4.15
2019-02-15T02:40:30.911Z,4.10
2019-02-15T02:43:01.605Z,4.12
2019-02-15T02:45:32.562Z,4.13
2019-02-15T02:48:02.987Z,4.09
2019-02-15T02:50:33.634Z,4.09
2019-02-15T02:53:04.674Z,4.10
2019-02-15T02:55:35.394Z,4.11
2019-02-15T02:58:06.442Z,4.11
2019-02-15T03:00:37.229Z,4.07
2019-02-15T03:03:07.767Z,4.05
2019-02-15T03:05:38.247Z,4.05
2019-02-15T03:08:09.112Z,4.00
2019-02-15T03:10:40.494Z,4.01
2019-02-15T03:13:11.127Z,4.03
2019-02-15T03:15:41.906Z,3.99
2019-02-15T03:18:12.302Z,3.99
2019-02-15T03:20:42.687Z,3.98
2019-02-15T03:23:13.919Z,3.98
2019-02-15T03:25:44.483Z,3.93
2019-02-15T03:28:17.641Z,3.93
2019-02-15T03:30:48.282Z,3.94
2019-02-15T03:33:18.835Z,3.92
2019-02-15T03:36:00.095Z,3.97
2019-02-15T03:38:57.324Z,3.93
2019-02-15T03:41:32.705Z,3.95
2019-02-15T03:44:03.087Z,3.96
2019-02-15T03:46:33.745Z,3.98
2019-02-15T03:49:04.805Z,3.97
2019-02-15T03:51:35.240Z,4.02
2019-02-15T03:54:05.776Z,4.05
2019-02-15T03:56:37.634Z,4.10
2019-02-15T03:59:10.010Z,4.16
2019-02-15T04:01:43.477Z,4.17
2019-02-15T04:04:14.651Z,4.18
2019-02-15T04:06:47.482Z,4.20
2019-02-15T04:09:18.249Z,4.25
2019-02-15T04:11:48.759Z,4.22
2019-02-15T04:14:19.098Z,4.24
2019-02-15T04:16:49.887Z,4.26
2019-02-15T04:19:22.041Z,4.27
2019-02-15T04:21:52.468Z,4.28
2019-02-15T04:24:23.143Z,4.22
2019-02-15T04:26:53.792Z,4.32
2019-02-15T04:29:24.436Z,4.30
2019-02-15T04:31:55.141Z,4.31
2019-02-15T04:34:25.782Z,4.29
2019-02-15T04:36:56.660Z,4.22
2019-02-15T04:39:27.829Z,4.19
2019-02-15T04:41:58.267Z,4.19
2019-02-15T04:44:28.935Z,4.21
2019-02-15T04:46:59.393Z,4.19
2019-02-15T04:49:29.872Z,4.20
2019-02-15T04:52:00.485Z,4.16
2019-02-15T04:54:31.329Z,4.19
2019-02-15T04:57:02.119Z,4.25
2019-02-15T04:59:32.997Z,4.26
2019-02-15T05:02:03.824Z,4.30
2019-02-15T05:04:34.712Z,4.37
2019-02-15T05:07:06.020Z,4.33
2019-02-15T05:09:37.221Z,4.33
2019-02-15T05:12:07.902Z,4.38
2019-02-15T05:14:38.445Z,4.47
2019-02-15T05:17:09.289Z,4.50
2019-02-15T05:19:40.071Z,4.51
2019-02-15T05:22:10.748Z,4.53
2019-02-15T05:24:41.642Z,4.56
2019-02-15T05:27:12.240Z,4.62
2019-02-15T05:29:42.659Z,4.67
2019-02-15T05:32:13.224Z,4.72
2019-02-15T05:34:43.753Z,4.66
2019-02-15T05:37:14.511Z,4.64
2019-02-15T05:39:44.936Z,4.55
2019-02-15T05:42:15.418Z,4.47
2019-02-15T05:44:46.508Z,4.42
2019-02-15T05:47:17.921Z,4.36
2019-02-15T05:49:48.530Z,4.33
2019-02-15T05:52:19.012Z,4.28
2019-02-15T05:54:50.561Z,4.37
2019-02-15T05:57:21.543Z,4.42
2019-02-15T05:59:52.185Z,4.35
2019-02-15T06:02:22.914Z,4.39
2019-02-15T06:04:53.658Z,4.32
2019-02-15T06:07:24.174Z,4.27
2019-02-15T06:09:54.894Z,4.39
2019-02-15T06:12:25.366Z,4.39
2019-02-15T06:14:55.830Z,4.39
2019-02-15T06:17:27.370Z,4.47
2019-02-15T06:19:58.151Z,4.50
2019-02-15T06:22:28.653Z,4.50
2019-02-15T06:24:59.220Z,4.44
2019-02-15T06:27:29.737Z,4.41
2019-02-15T06:30:00.740Z,4.48
2019-02-15T06:32:31.574Z,4.57
2019-02-15T06:35:02.173Z,4.63
2019-02-15T06:37:32.723Z,4.62
2019-02-15T06:40:03.413Z,4.55
2019-02-15T06:42:33.779Z,4.53
2019-02-15T06:45:04.259Z,4.55
2019-02-15T06:47:34.805Z,4.55
2019-02-15T06:50:06.132Z,4.52
2019-02-15T06:52:36.669Z,4.52
2019-02-15T06:55:08.291Z,4.62
2019-02-15T06:57:38.841Z,4.64
2019-02-15T07:00:32.073Z,4.55
2019-02-15T07:03:18.231Z,4.54
2019-02-15T07:05:48.854Z,4.51
2019-02-15T07:08:19.258Z,4.51
2019-02-15T07:10:49.756Z,4.51
2019-02-15T07:13:20.128Z,4.66
2019-02-15T07:15:51.730Z,4.57
2019-02-15T07:18:22.121Z,4.54
2019-02-15T07:20:52.817Z,4.65
2019-02-15T07:23:26.077Z,4.51
2019-02-15T07:25:57.893Z,4.61
2019-02-15T07:42:15.437Z,4.82
2019-02-15T07:44:49.296Z,4.80
2019-02-15T07:47:22.392Z,4.87
2019-02-15T07:49:57.150Z,4.75
2019-02-15T07:52:29.868Z,4.73
2019-02-15T07:55:02.078Z,4.64
2019-02-15T07:57:34.053Z,4.78
2019-02-15T08:00:10.161Z,4.74
2019-02-15T08:02:42.583Z,4.75
2019-02-15T08:05:14.837Z,4.83
2019-02-15T08:07:46.985Z,4.83
2019-02-15T08:10:19.081Z,4.79
2019-02-15T08:12:51.279Z,4.72
2019-02-15T08:15:23.583Z,4.77
2019-02-15T08:17:55.634Z,4.83
2019-02-15T08:20:27.779Z,4.80
2019-02-15T08:23:00.072Z,4.90
2019-02-15T08:25:32.124Z,4.96
2019-02-15T08:28:04.102Z,5.07
2019-02-15T08:30:36.888Z,5.08
2019-02-15T08:33:09.089Z,5.13
2019-02-15T08:35:41.183Z,5.25
2019-02-15T08:38:13.163Z,5.32
2019-02-15T08:40:45.365Z,5.36
2019-02-15T08:43:17.630Z,5.40
2019-02-15T08:45:49.895Z,5.18
2019-02-15T08:48:23.611Z,5.13
2019-02-15T08:50:55.585Z,5.27
2019-02-15T08:53:27.638Z,5.38
2019-02-15T08:55:59.971Z,5.48
2019-02-15T08:58:32.060Z,5.62
2019-02-15T09:01:05.243Z,5.65
2019-02-15T09:03:37.635Z,5.61
2019-02-15T09:06:09.777Z,5.62
2019-02-15T09:08:41.940Z,5.50
2019-02-15T09:11:14.030Z,5.55
2019-02-15T09:13:47.472Z,5.60
2019-02-15T09:16:19.517Z,5.78
2019-02-15T09:18:52.060Z,5.62
2019-02-15T09:21:24.160Z,5.62
2019-02-15T09:23:56.207Z,5.73
2019-02-15T09:26:29.836Z,5.79
2019-02-15T09:29:05.782Z,5.95
2019-02-15T09:31:37.908Z,5.95
2019-02-15T09:34:10.048Z,5.89
2019-02-15T09:36:42.201Z,5.98
2019-02-15T09:39:14.187Z,6.04
2019-02-15T09:41:48.667Z,6.05
2019-02-15T09:44:20.656Z,6.08
2019-02-15T09:46:52.894Z,6.11
2019-02-15T09:49:24.879Z,6.06
2019-02-15T09:51:57.831Z,6.07
2019-02-15T09:54:29.818Z,6.24
2019-02-15T09:57:01.951Z,6.28
2019-02-15T09:59:33.971Z,6.35
2019-02-15T10:02:06.000Z,6.24
2019-02-15T10:04:38.076Z,6.26
2019-02-15T10:07:10.326Z,6.36
2019-02-15T10:09:42.534Z,6.35
2019-02-15T10:12:14.572Z,6.40
2019-02-15T10:14:46.542Z,6.38
2019-02-15T10:17:18.848Z,6.28
2019-02-15T10:19:50.899Z,6.19
2019-02-15T10:22:22.895Z,6.02
2019-02-15T10:24:55.002Z,6.01
2019-02-15T10:27:27.443Z,6.11
2019-02-15T10:29:59.962Z,6.19
2019-02-15T10:32:32.710Z,6.27
2019-02-15T10:35:06.632Z,6.34
2019-02-15T12:44:38.588Z,6.75
2019-02-15T12:47:15.120Z,6.83
2019-02-15T12:49:41.805Z,6.85
2019-02-15T12:52:12.776Z,6.85
2019-02-15T12:54:45.002Z,6.97
2019-02-15T12:57:15.671Z,7.30
2019-02-15T12:59:46.654Z,7.59
2019-02-15T13:02:19.606Z,7.55
2019-02-15T13:04:50.037Z,7.68
2019-02-15T13:07:22.083Z,8.21
2019-02-15T13:09:52.860Z,8.24
2019-02-15T13:12:23.412Z,8.29
2019-02-15T13:14:54.132Z,8.32
2019-02-15T13:17:25.210Z,8.51
2019-02-15T13:19:56.079Z,8.87
2019-02-15T13:22:26.543Z,8.92
2019-02-15T13:24:57.095Z,8.82
2019-02-15T13:27:27.729Z,8.77
2019-02-15T13:29:58.524Z,8.12
2019-02-15T13:32:30.130Z,8.18
2019-02-15T13:35:00.882Z,8.09
2019-02-15T13:37:31.289Z,7.97
2019-02-15T13:40:01.790Z,7.89
2019-02-15T13:42:32.215Z,8.09
2019-02-15T13:45:03.285Z,8.07
2019-02-15T13:47:34.992Z,8.08
2019-02-15T13:50:06.472Z,8.32
2019-02-15T13:52:37.076Z,8.31
2019-02-15T13:55:07.706Z,8.26
2019-02-15T13:57:37.992Z,8.38
2019-02-15T14:00:09.706Z,8.17
2019-02-15T14:02:40.344Z,8.22
2019-02-15T14:05:11.403Z,8.34
2019-02-15T14:07:41.913Z,8.17
2019-02-15T14:10:12.548Z,7.94
2019-02-15T14:12:45.850Z,7.89
2019-02-15T14:15:16.307Z,8.04
2019-02-15T14:17:48.715Z,8.13
2019-02-15T14:20:20.043Z,8.16
2019-02-15T14:22:50.727Z,8.21
2019-02-15T14:25:22.537Z,8.33
2019-02-15T14:27:53.039Z,8.28
2019-02-15T14:30:23.769Z,8.39
2019-02-15T14:32:54.554Z,8.74
2019-02-15T14:35:26.283Z,8.75
2019-02-15T14:37:58.592Z,8.67
2019-02-15T14:40:29.009Z,8.29
2019-02-15T14:43:00.097Z,8.16
2019-02-15T14:45:31.219Z,8.42
2019-02-15T14:48:02.833Z,8.15
2019-02-15T14:50:33.404Z,8.08
2019-02-15T14:53:05.162Z,8.16
2019-02-15T14:55:36.014Z,8.33
2019-02-15T14:58:06.630Z,8.31
2019-02-15T15:00:37.586Z,7.92
2019-02-15T15:03:08.461Z,7.94
2019-02-15T15:05:39.956Z,8.06
2019-02-15T15:08:10.699Z,7.87
2019-02-15T15:10:41.407Z,7.90
2019-02-15T15:13:11.770Z,7.81
2019-02-15T15:15:44.076Z,7.80
2019-02-15T15:18:15.742Z,7.84
2019-02-15T15:20:46.376Z,7.89
2019-02-15T15:23:18.716Z,7.74
2019-02-15T15:25:49.061Z,7.81
2019-02-15T15:28:21.200Z,7.63
2019-02-15T15:30:53.366Z,7.53
2019-02-15T15:33:23.862Z,7.52
2019-02-15T15:35:54.240Z,7.52
2019-02-15T15:38:24.607Z,7.50
2019-02-15T15:40:55.171Z,7.60
2019-02-15T15:43:27.580Z,7.57
2019-02-15T15:45:58.146Z,7.41
2019-02-15T15:48:30.294Z,7.26
2019-02-15T15:51:01.020Z,7.31
2019-02-15T15:53:32.838Z,7.19
2019-02-15T15:56:03.561Z,7.14
2019-02-15T15:58:34.023Z,7.06
2019-02-15T16:01:04.923Z,7.07
2019-02-15T16:03:35.426Z,7.10
2019-02-15T16:06:06.106Z,7.05
2019-02-15T16:08:36.595Z,7.02
2019-02-15T16:11:07.631Z,6.99
2019-02-15T16:13:38.152Z,6.91
2019-02-15T16:16:08.689Z,6.87
2019-02-15T16:18:39.157Z,6.83
2019-02-15T16:21:10.536Z,6.90
2019-02-15T16:23:40.899Z,6.86
2019-02-15T16:26:11.422Z,6.85
2019-02-15T16:28:41.856Z,6.73
2019-02-15T16:31:12.567Z,6.72
2019-02-15T16:33:43.011Z,6.72
2019-02-15T16:36:13.363Z,6.68
2019-02-15T16:38:43.893Z,6.65
2019-02-15T16:41:14.497Z,6.65
2019-02-15T16:43:44.927Z,6.62
2019-02-15T16:46:15.628Z,6.61
2019-02-15T16:48:46.216Z,6.55
2019-02-15T16:51:18.267Z,6.59
2019-02-15T16:53:48.785Z,6.56
2019-02-15T16:56:19.269Z,6.50
2019-02-15T16:58:49.874Z,6.47
2019-02-15T17:01:23.098Z,6.45
2019-02-15T17:03:53.804Z,6.39
2019-02-15T17:06:26.949Z,6.40
2019-02-15T17:08:58.357Z,6.32
2019-02-15T17:11:29.196Z,6.28
2019-02-15T17:13:59.984Z,6.22
2019-02-15T17:16:31.093Z,6.20
2019-02-15T17:19:03.794Z,6.20
2019-02-15T17:21:34.466Z,6.16
2019-02-15T17:24:06.135Z,6.14
2019-02-15T17:26:37.449Z,6.09
2019-02-15T17:29:07.927Z,6.02
2019-02-15T17:31:38.387Z,5.95
2019-02-15T17:34:08.892Z,5.92
2019-02-15T17:36:39.432Z,5.88
2019-02-15T17:39:10.140Z,5.84
2019-02-15T17:41:40.491Z,5.80
2019-02-15T17:44:11.550Z,5.76
2019-02-15T17:46:43.367Z,5.75
2019-02-15T17:49:13.853Z,5.69
2019-02-15T17:51:44.562Z,5.69
2019-02-15T17:54:15.035Z,5.65
2019-02-15T17:56:45.982Z,5.65
2019-02-15T17:59:16.532Z,5.61
2019-02-15T18:01:47.159Z,5.58
2019-02-15T18:04:17.567Z,5.54
2019-02-15T18:06:48.171Z,5.51
2019-02-15T18:09:19.305Z,5.51
2019-02-15T18:11:50.093Z,5.49
2019-02-15T18:14:22.880Z,5.47
2019-02-15T18:16:53.780Z,5.44
2019-02-15T18:19:24.314Z,5.43
2019-02-15T18:21:54.661Z,5.43
2019-02-15T18:24:24.993Z,5.37
2019-02-15T18:26:55.455Z,5.33
2019-02-15T18:29:25.991Z,5.32
2019-02-15T18:31:56.482Z,5.30
2019-02-15T18:34:27.591Z,5.23
2019-02-15T18:36:58.064Z,5.21
2019-02-15T18:39:30.474Z,5.13
2019-02-15T18:42:00.997Z,5.11
2019-02-15T18:44:33.977Z,5.07
2019-02-15T18:47:05.072Z,5.06
2019-02-15T18:49:35.687Z,5.06
2019-02-15T18:52:06.050Z,5.09
2019-02-15T18:54:37.016Z,5.08
2019-02-15T18:57:07.417Z,5.08
2019-02-15T18:59:37.989Z,5.08
2019-02-15T19:02:08.731Z,5.09
2019-02-15T19:04:39.438Z,5.06
2019-02-15T19:07:10.179Z,5.11
2019-02-15T19:09:40.951Z,5.10
2019-02-15T19:12:11.567Z,5.08
2019-02-15T19:14:41.843Z,5.07
2019-02-15T19:17:12.422Z,5.05
2019-02-15T19:19:42.761Z,4.97
2019-02-15T19:22:13.231Z,4.91
2019-02-15T19:24:43.753Z,4.92
2019-02-15T19:27:14.323Z,4.91
2019-02-15T19:29:45.007Z,4.91
2019-02-15T19:32:16.496Z,4.91
2019-02-15T19:34:47.554Z,4.91
2019-02-15T19:37:22.071Z,4.96
2019-02-15T19:39:52.359Z,4.93
2019-02-15T19:42:23.747Z,4.97
2019-02-15T19:44:54.606Z,5.00
2019-02-15T19:47:25.573Z,4.99
2019-02-15T19:49:56.038Z,4.93
2019-02-15T19:52:26.644Z,4.89
2019-02-15T19:54:57.236Z,4.93
2019-02-15T19:57:28.315Z,4.87
2019-02-15T20:00:01.267Z,4.88
2019-02-15T20:02:32.871Z,4.84
2019-02-15T20:05:03.699Z,4.84
2019-02-15T20:07:35.885Z,4.85
2019-02-15T20:10:08.381Z,4.84
2019-02-15T20:12:38.992Z,4.80
2019-02-15T20:15:10.828Z,4.80
2019-02-15T20:17:41.555Z,4.81
2019-02-15T20:20:13.017Z,4.85
2019-02-15T20:22:43.953Z,4.83
2019-02-15T20:25:14.665Z,4.86
2019-02-15T20:27:45.303Z,4.83
2019-02-15T20:30:18.265Z,4.79
2019-02-15T20:32:49.263Z,4.81
2019-02-15T20:35:20.128Z,4.79
2019-02-15T20:37:51.035Z,4.73
2019-02-15T20:40:22.819Z,4.68
2019-02-15T20:42:53.714Z,4.65
2019-02-15T20:45:24.317Z,4.60
2019-02-15T20:47:55.142Z,4.60
2019-02-15T20:50:26.478Z,4.45
2019-02-15T20:52:57.320Z,4.36
2019-02-15T20:55:27.870Z,4.31
2019-02-15T20:57:58.620Z,4.12
2019-02-15T21:00:29.815Z,4.06
2019-02-15T21:03:01.729Z,3.98
2019-02-15T21:05:32.512Z,3.86
2019-02-15T21:08:03.175Z,3.87
2019-02-15T21:10:33.672Z,3.85
2019-02-15T21:13:04.358Z,3.82
2019-02-15T21:15:35.522Z,3.80
2019-02-15T21:18:06.043Z,3.86
2019-02-15T21:20:38.301Z,3.90
2019-02-15T21:23:09.037Z,3.93
2019-02-15T21:25:40.542Z,3.93
2019-02-15T21:28:11.565Z,3.97
2019-02-15T21:30:42.400Z,3.99
2019-02-15T21:33:13.206Z,3.98
2019-02-15T21:35:43.838Z,3.96
2019-02-15T21:38:14.433Z,3.89
2019-02-15T21:40:45.023Z,3.85
2019-02-15T21:43:16.381Z,3.83
2019-02-15T21:45:46.708Z,3.79
2019-02-15T21:48:17.678Z,3.81
2019-02-15T21:50:49.277Z,3.82
2019-02-15T21:53:20.558Z,3.91
2019-02-15T21:55:52.000Z,4.04
2019-02-15T21:58:22.405Z,4.18
2019-02-15T22:00:53.293Z,4.28
2019-02-15T22:03:23.767Z,4.37
2019-02-15T22:05:55.804Z,4.43
2019-02-15T22:08:26.462Z,4.42
2019-02-15T22:10:56.948Z,4.46
2019-02-15T22:13:27.364Z,4.46
2019-02-15T22:15:58.256Z,4.45
2019-02-15T22:18:30.211Z,4.40
2019-02-15T22:21:00.956Z,4.36
2019-02-15T22:23:31.457Z,4.38
2019-02-15T22:26:02.121Z,4.30
2019-02-15T22:28:32.470Z,4.29
2019-02-15T22:31:03.352Z,4.25
2019-02-15T22:33:34.790Z,4.20
2019-02-15T22:36:06.013Z,4.09
2019-02-15T22:38:36.785Z,4.03
2019-02-15T22:41:17.767Z,4.01
2019-02-15T22:43:50.389Z,3.92
2019-02-15T22:46:22.558Z,3.88
2019-02-15T22:48:53.064Z,3.89
2019-02-15T22:51:23.610Z,3.87
2019-02-15T22:53:54.197Z,3.88
2019-02-15T22:56:24.783Z,3.84
2019-02-15T22:58:55.291Z,3.84
2019-02-15T23:01:27.615Z,3.81
2019-02-15T23:03:58.503Z,3.79
2019-02-15T23:06:30.863Z,3.78
2019-02-15T23:09:01.356Z,3.79
2019-02-15T23:11:33.488Z,3.79
2019-02-15T23:14:03.946Z,3.79
2019-02-15T23:16:34.434Z,3.74
2019-02-15T23:19:05.820Z,3.73
2019-02-15T23:21:36.258Z,3.67
2019-02-15T23:24:06.791Z,3.68
2019-02-15T23:26:37.756Z,3.67
2019-02-15T23:29:08.250Z,3.61
2019-02-15T23:31:39.068Z,3.53
2019-02-15T23:34:09.454Z,3.42
2019-02-15T23:36:40.696Z,3.37
2019-02-15T23:39:11.057Z,3.31
2019-02-15T23:41:41.545Z,3.25
2019-02-15T23:44:12.299Z,3.24
2019-02-15T23:46:42.738Z,3.26
2019-02-15T23:49:13.276Z,3.29
2019-02-15T23:51:45.244Z,3.33
2019-02-15T23:54:15.927Z,3.37
2019-02-15T23:56:46.448Z,3.35
2019-02-15T23:59:16.974Z,3.37
